Weather History for Algona, IA

Change the Weather History Date:

Sunday, March 17, 2013

  Actual Average Record
Temperature  
Mean Temperature 23 °F -  
Max Temperature 32 °F 37 °F 80 °F (2012)
Min Temperature 14 °F 22 °F 14 °F (2001)
Degree Days  
Heating Degree Days 42    
Moisture  
Dew Point 18 °F    
Average Humidity 80    
Maximum Humidity 93    
Minimum Humidity 68    
Precipitation  
Precipitation 0.00 in - - ()
Sea Level Pressure  
Sea Level Pressure 30.02 in    
Wind  
Wind Speed 14 mph (ESE)    
Max Wind Speed 23 mph    
Max Gust Speed 29 mph    
Visibility 10 miles    
Events Snow    
Averages and records for this station are not official NWS values.
T = Trace of Precipitation, MM = Missing Value Source: NWS Daily Summary

Daily Weather History Graph

Daily Weather History Graph

Search for Another Location

Airport:

Trip Planner

Search our weather history database for the weather conditions in past years. The results will help you decide how hot, cold, wet, or windy it might be!

Date:

Astronomy

Mar. 17, 2013 Rise Set
Actual Time 7:25 AM CDT 7:26 PM CDT
Civil Twilight 6:56 AM CDT 7:54 PM CDT
Nautical Twilight 6:23 AM CDT 8:27 PM CDT
Astronomical Twilight 5:50 AM CDT 9:01 PM CDT
Moon 10:29 AM CDT (3/17) 12:43 AM CDT (3/17)
Length of Visible Light 12h 57m
Length of Day
12h 01m
Waxing Crescent, 31% of the Moon is Illuminated
Mar 17
Waxing Crescent
Mar 19
First Quarter
Mar 27
Full
Apr 2
Last Quarter
Apr 10
New

Hourly Weather History & Observations

Time (CDT) Temp. Windchill Dew Point Humidity Pressure Visibility Wind Dir Wind Speed Gust Speed Precip Events Conditions
12:15 AM 19.4 °F 6.6 °F 12.2 °F 74% 30.20 in 10.0 mi North 12.7 mph - N/A   Scattered Clouds
12:35 AM 19.4 °F 7.9 °F 12.2 °F 74% 30.20 in 10.0 mi North 10.4 mph - N/A   Partly Cloudy
12:55 AM 19.4 °F 6.6 °F 12.2 °F 74% 30.20 in 10.0 mi North 12.7 mph - N/A   Partly Cloudy
1:15 AM 17.6 °F 4.3 °F 12.2 °F 79% 30.19 in 10.0 mi North 12.7 mph - N/A   Partly Cloudy
1:35 AM 17.6 °F 5.7 °F 12.2 °F 79% 30.19 in 10.0 mi North 10.4 mph - N/A   Clear
1:55 AM 17.6 °F 6.4 °F 12.2 °F 79% 30.19 in 10.0 mi North 9.2 mph 16.1 mph N/A   Clear
2:15 AM 17.6 °F 3.7 °F 12.2 °F 79% 30.18 in 10.0 mi NNE 13.8 mph - N/A   Clear
2:35 AM 15.8 °F 2.7 °F 12.2 °F 86% 30.18 in 10.0 mi NNE 11.5 mph 17.3 mph N/A   Clear
2:55 AM 15.8 °F 0.9 °F 12.2 °F 86% 30.17 in 10.0 mi NNE 15.0 mph - N/A   Clear
3:15 AM 15.8 °F -0.2 °F 12.2 °F 86% 30.16 in 10.0 mi NNE 17.3 mph - N/A   Clear
3:35 AM 15.8 °F -0.2 °F 12.2 °F 86% 30.15 in 10.0 mi NNE 17.3 mph - N/A   Partly Cloudy
3:55 AM 15.8 °F -0.2 °F 10.4 °F 79% 30.14 in 10.0 mi NE 17.3 mph - N/A   Partly Cloudy
4:15 AM 15.8 °F 1.4 °F 10.4 °F 79% 30.14 in 10.0 mi NE 13.8 mph - N/A   Partly Cloudy
4:35 AM 14.0 °F -1.4 °F 10.4 °F 86% 30.13 in 10.0 mi NNE 15.0 mph - N/A   Clear
4:55 AM 14.0 °F 0.5 °F 10.4 °F 86% 30.13 in 10.0 mi NE 11.5 mph - N/A   Clear
5:15 AM 14.0 °F 0.5 °F 10.4 °F 86% 30.12 in 10.0 mi NE 11.5 mph - N/A   Clear
5:35 AM 14.0 °F -0.2 °F 10.4 °F 86% 30.11 in 10.0 mi NE 12.7 mph - N/A   Clear
5:55 AM 14.0 °F 0.5 °F 10.4 °F 86% 30.12 in 10.0 mi NE 11.5 mph 18.4 mph N/A   Clear
6:15 AM 14.0 °F -1.4 °F 8.6 °F 79% 30.13 in 10.0 mi NE 15.0 mph - N/A   Clear
6:35 AM 14.0 °F -0.8 °F 10.4 °F 86% 30.13 in 10.0 mi NE 13.8 mph - N/A   Clear
6:55 AM 14.0 °F 0.5 °F 8.6 °F 79% 30.13 in 10.0 mi ENE 11.5 mph - N/A Snow Light Snow
7:15 AM 14.0 °F 2.0 °F 8.6 °F 79% 30.14 in 10.0 mi ENE 9.2 mph - N/A Snow Light Snow
7:35 AM 14.0 °F 2.0 °F 8.6 °F 79% 30.14 in 10.0 mi ENE 9.2 mph - N/A   Clear
7:55 AM 14.0 °F 0.5 °F 8.6 °F 79% 30.14 in 10.0 mi East 11.5 mph - N/A   Clear
8:15 AM 15.8 °F 2.1 °F 8.6 °F 73% 30.13 in 10.0 mi East 12.7 mph - N/A Snow Light Snow
8:35 AM 15.8 °F 2.7 °F 8.6 °F 73% 30.14 in 10.0 mi East 11.5 mph - N/A   Clear
8:55 AM 15.8 °F 1.4 °F 8.6 °F 73% 30.14 in 10.0 mi East 13.8 mph - N/A   Clear
9:15 AM 17.6 °F 3.2 °F 10.4 °F 73% 30.14 in 10.0 mi ESE 15.0 mph - N/A   Clear
9:35 AM 17.6 °F 3.2 °F 10.4 °F 73% 30.13 in 10.0 mi ESE 15.0 mph - N/A   Clear
9:55 AM 19.4 °F 6.0 °F 10.4 °F 68% 30.12 in 10.0 mi ESE 13.8 mph 24.2 mph N/A   Clear
10:15 AM 19.4 °F 5.5 °F 12.2 °F 74% 30.11 in 10.0 mi ESE 15.0 mph - N/A   Partly Cloudy
10:35 AM 21.2 °F 6.8 °F 12.2 °F 68% 30.12 in 10.0 mi SE 17.3 mph 23.0 mph N/A   Partly Cloudy
10:55 AM 21.2 °F 8.3 °F 14.0 °F 74% 30.11 in 10.0 mi SE 13.8 mph 21.9 mph N/A   Scattered Clouds
11:15 AM 23.0 °F 9.6 °F 14.0 °F 68% 30.09 in 10.0 mi SE 16.1 mph - N/A   Overcast
11:35 AM 23.0 °F 8.7 °F 15.8 °F 74% 30.09 in 10.0 mi SE 18.4 mph - N/A   Overcast
11:55 AM 24.8 °F 11.9 °F 17.6 °F 74% 30.07 in 10.0 mi SE 16.1 mph 23.0 mph N/A   Overcast
12:15 PM 24.8 °F 11.9 °F 17.6 °F 74% 30.06 in 10.0 mi SE 16.1 mph 21.9 mph N/A   Overcast
12:35 PM 24.8 °F 11.9 °F 17.6 °F 74% 30.04 in 10.0 mi SSE 16.1 mph - N/A   Overcast
12:55 PM 26.6 °F 15.2 °F 19.4 °F 74% 30.03 in 10.0 mi SE 13.8 mph 19.6 mph N/A   Overcast
1:15 PM 26.6 °F 15.7 °F 19.4 °F 74% 30.02 in 10.0 mi SE 12.7 mph 20.7 mph N/A   Overcast
1:35 PM 26.6 °F 13.4 °F 21.2 °F 80% 30.00 in 10.0 mi SE 18.4 mph - N/A   Overcast
1:55 PM 28.4 °F 15.8 °F 21.2 °F 74% 29.98 in 10.0 mi SE 18.4 mph 25.3 mph N/A   Overcast
2:15 PM 28.4 °F 14.4 °F 23.0 °F 80% 29.96 in 10.0 mi SSE 23.0 mph - N/A   Overcast
2:35 PM 28.4 °F 16.2 °F 23.0 °F 80% 29.95 in 10.0 mi SE 17.3 mph 28.8 mph N/A Snow Light Snow
2:55 PM 30.2 °F 17.4 °F 23.0 °F 75% 29.95 in 10.0 mi SSE 20.7 mph 26.5 mph N/A Snow Light Snow
3:15 PM 30.2 °F 19.3 °F 23.0 °F 75% 29.94 in 10.0 mi SSE 15.0 mph 25.3 mph N/A Snow Light Snow
3:35 PM 30.2 °F 19.3 °F 24.8 °F 80% 29.94 in 10.0 mi SE 15.0 mph 24.2 mph N/A   Overcast
3:55 PM 30.2 °F 18.1 °F 24.8 °F 80% 29.93 in 10.0 mi SE 18.4 mph - N/A   Overcast
4:15 PM 32.0 °F 22.1 °F 24.8 °F 75% 29.92 in 10.0 mi SE 13.8 mph 21.9 mph N/A   Overcast
4:35 PM 30.2 °F 18.1 °F 24.8 °F 80% 29.91 in 10.0 mi SSE 18.4 mph - N/A   Mostly Cloudy
4:55 PM 30.2 °F 18.5 °F 24.8 °F 80% 29.90 in 10.0 mi SE 17.3 mph 24.2 mph N/A   Overcast
5:15 PM 32.0 °F 20.5 °F 24.8 °F 75% 29.90 in 10.0 mi SE 18.4 mph - N/A   Overcast
5:35 PM 32.0 °F 22.1 °F 24.8 °F 75% 29.89 in 10.0 mi SE 13.8 mph 21.9 mph N/A   Overcast
5:55 PM 32.0 °F 20.8 °F 24.8 °F 75% 29.88 in 10.0 mi ESE 17.3 mph 24.2 mph N/A   Overcast
6:15 PM 32.0 °F 22.1 °F 26.6 °F 80% 29.87 in 10.0 mi ESE 13.8 mph 20.7 mph N/A   Overcast
6:35 PM 32.0 °F 21.6 °F 26.6 °F 80% 29.86 in 10.0 mi ESE 15.0 mph 21.9 mph N/A   Overcast
6:55 PM 32.0 °F 21.6 °F 26.6 °F 80% 29.85 in 10.0 mi ESE 15.0 mph 21.9 mph N/A   Overcast
7:15 PM 32.0 °F 21.2 °F 26.6 °F 80% 29.85 in - ESE 16.1 mph - N/A   Overcast
7:35 PM 32.0 °F 20.8 °F 26.6 °F 80% 29.85 in 10.0 mi SE 17.3 mph 24.2 mph N/A   Overcast
7:55 PM 32.0 °F 22.1 °F 26.6 °F 80% 29.84 in 10.0 mi SE 13.8 mph - N/A   Overcast
8:15 PM 32.0 °F 20.8 °F 28.4 °F 87% 29.85 in 10.0 mi SE 17.3 mph - N/A   Overcast
8:35 PM 32.0 °F 20.5 °F 28.4 °F 87% 29.84 in 10.0 mi SE 18.4 mph - N/A   Overcast
8:55 PM 32.0 °F 20.8 °F 28.4 °F 87% 29.84 in 10.0 mi SE 17.3 mph - N/A   Overcast
9:15 PM 32.0 °F 21.2 °F 28.4 °F 87% 29.84 in 10.0 mi SE 16.1 mph 21.9 mph N/A   Overcast
9:35 PM 32.0 °F 20.8 °F 28.4 °F 87% 29.84 in 10.0 mi SE 17.3 mph 25.3 mph N/A   Overcast
9:55 PM 32.0 °F 20.8 °F 28.4 °F 87% 29.83 in 10.0 mi SE 17.3 mph 24.2 mph N/A   Overcast
10:15 PM 32.0 °F 20.5 °F 28.4 °F 87% 29.83 in 10.0 mi SE 18.4 mph 24.2 mph N/A   Overcast
10:35 PM 32.0 °F 20.1 °F 28.4 °F 87% 29.83 in 10.0 mi SE 19.6 mph - N/A Snow Light Snow
10:55 PM 32.0 °F 20.5 °F 28.4 °F 87% 29.84 in 8.0 mi SE 18.4 mph - N/A   Overcast
11:15 PM 32.0 °F 20.5 °F 28.4 °F 87% 29.84 in 10.0 mi SSE 18.4 mph - N/A   Overcast
11:35 PM 32.0 °F 20.5 °F 30.2 °F 93% 29.82 in 9.0 mi SSE 18.4 mph - N/A   Overcast
11:55 PM 32.0 °F 20.8 °F 30.2 °F 93% 29.81 in 3.0 mi SE 17.3 mph 24.2 mph N/A   Light Drizzle